Time;durP1;ratioP1;P1;durP2;ratioP2;P2;SDS_P1;SDS_P2;PMS_P1;PMS_P2;Temp;Humidity;BMP_temperature;BMP_pressure;BME280_temperature;BME280_humidity;BME280_pressure;Samples;Min_cycle;Max_cycle;Signal;HPM_P1;HPM_P2
2022/01/31 00:01:22;;;;;;;14.73;5.05;;;3.70;99.90;;;;;;5127418;27;20089;-76
2022/01/31 00:03:49;;;;;;;23.58;5.20;;;3.80;99.90;;;;;;5129022;27;20048;-75
2022/01/31 00:06:15;;;;;;;17.02;4.55;;;3.80;99.90;;;;;;5117931;27;20048;-77
2022/01/31 00:08:42;;;;;;;26.08;5.95;;;3.80;99.90;;;;;;5125114;27;20051;-75
2022/01/31 00:11:09;;;;;;;12.43;4.88;;;3.80;99.90;;;;;;5147895;27;20054;-77
2022/01/31 00:13:39;;;;;;;22.45;6.13;;;3.90;99.90;;;;;;5128255;27;20050;-79
2022/01/31 00:16:08;;;;;;;16.13;5.15;;;3.90;99.90;;;;;;5138889;27;20100;-77
2022/01/31 00:18:34;;;;;;;28.52;5.65;;;3.80;99.90;;;;;;5148750;27;20055;-77
2022/01/31 00:21:01;;;;;;;25.13;5.43;;;3.80;99.90;;;;;;5140720;27;20395;-77
2022/01/31 00:23:27;;;;;;;13.40;5.25;;;3.80;99.90;;;;;;5136746;27;20054;-77
2022/01/31 00:25:54;;;;;;;25.58;6.53;;;3.80;99.90;;;;;;5118681;27;20060;-76
2022/01/31 00:28:20;;;;;;;30.67;5.63;;;3.80;99.90;;;;;;5143297;27;20046;-77
2022/01/31 00:30:47;;;;;;;16.23;5.75;;;3.80;99.90;;;;;;5121740;27;20057;-77
2022/01/31 00:33:13;;;;;;;19.73;5.88;;;3.80;99.90;;;;;;5126249;27;20058;-77
2022/01/31 00:35:40;;;;;;;28.98;6.07;;;3.80;99.90;;;;;;5125824;27;20371;-77
2022/01/31 00:38:06;;;;;;;18.02;6.07;;;3.80;99.90;;;;;;5130945;27;20050;-77
2022/01/31 00:40:34;;;;;;;22.52;6.43;;;3.70;99.90;;;;;;5126384;27;20050;-75
2022/01/31 00:43:01;;;;;;;27.58;7.55;;;3.70;99.90;;;;;;5133408;27;20430;-77
2022/01/31 00:45:30;;;;;;;18.40;7.03;;;3.70;99.90;;;;;;5122186;27;20405;-77
2022/01/31 00:48:02;;;;;;;18.30;7.30;;;3.70;99.90;;;;;;5126674;27;20051;-76
2022/01/31 00:50:28;;;;;;;28.92;6.72;;;3.80;99.90;;;;;;5123489;27;20043;-77
2022/01/31 00:52:55;;;;;;;26.05;6.55;;;3.80;99.90;;;;;;5127581;27;20047;-76
2022/01/31 00:55:22;;;;;;;17.77;6.70;;;3.70;99.90;;;;;;5123752;27;20089;-77
2022/01/31 00:57:49;;;;;;;28.55;6.95;;;3.80;99.90;;;;;;5146290;27;20042;-77
2022/01/31 01:00:15;;;;;;;23.92;7.43;;;3.70;99.90;;;;;;5119555;27;20043;-77
2022/01/31 01:02:42;;;;;;;26.95;7.90;;;3.70;99.90;;;;;;5124776;27;20038;-80
2022/01/31 01:05:08;;;;;;;28.02;8.65;;;3.80;99.90;;;;;;5122143;27;20049;-77
2022/01/31 01:07:35;;;;;;;26.13;8.35;;;3.70;99.90;;;;;;5120979;27;20050;-77
2022/01/31 01:10:01;;;;;;;25.13;8.00;;;3.80;99.90;;;;;;5125881;27;20066;-77
2022/01/31 01:12:28;;;;;;;24.58;7.22;;;3.80;99.90;;;;;;5126244;27;20057;-77
2022/01/31 01:14:54;;;;;;;20.08;7.65;;;3.80;99.90;;;;;;5128658;27;20087;-77
2022/01/31 01:17:21;;;;;;;24.02;9.65;;;3.80;99.90;;;;;;5131061;27;20062;-76
2022/01/31 01:19:47;;;;;;;16.90;8.20;;;3.90;99.90;;;;;;5134779;27;20088;-77
2022/01/31 01:22:14;;;;;;;37.28;7.85;;;3.80;99.90;;;;;;5130816;27;20046;-77
2022/01/31 01:24:40;;;;;;;23.92;8.48;;;3.90;99.90;;;;;;5126227;27;20054;-77
2022/01/31 01:27:08;;;;;;;27.45;7.88;;;3.90;99.90;;;;;;5127774;27;20047;-77
2022/01/31 01:29:35;;;;;;;27.63;9.32;;;3.90;99.90;;;;;;5121373;27;20055;-77
2022/01/31 01:32:01;;;;;;;31.35;9.63;;;3.90;99.90;;;;;;5131065;27;20055;-77
2022/01/31 01:34:32;;;;;;;25.63;8.52;;;3.90;99.90;;;;;;5128452;27;20046;-78
2022/01/31 01:37:00;;;;;;;18.25;8.38;;;3.90;99.90;;;;;;5121386;27;20081;-77
2022/01/31 01:39:27;;;;;;;21.80;8.48;;;3.80;99.90;;;;;;5132231;27;20050;-77
2022/01/31 01:41:53;;;;;;;17.80;8.48;;;3.80;99.90;;;;;;5122752;27;20043;-77
2022/01/31 01:44:20;;;;;;;24.65;9.35;;;3.80;99.90;;;;;;5125630;27;20054;-76
2022/01/31 01:46:46;;;;;;;19.40;8.23;;;3.70;99.90;;;;;;5132388;27;20054;-79
2022/01/31 01:49:13;;;;;;;16.48;8.63;;;3.70;99.90;;;;;;5124246;27;20047;-77
2022/01/31 01:51:39;;;;;;;30.63;9.40;;;3.60;99.90;;;;;;5137557;27;20046;-77
2022/01/31 01:54:06;;;;;;;30.73;9.73;;;3.70;99.90;;;;;;5134117;27;20057;-76
2022/01/31 01:56:32;;;;;;;25.77;8.75;;;3.60;99.90;;;;;;5134570;27;20057;-77
2022/01/31 01:59:04;;;;;;;25.40;9.45;;;3.60;99.90;;;;;;5119922;27;20070;-76
2022/01/31 02:01:30;;;;;;;23.33;10.55;;;3.50;99.90;;;;;;5129037;27;20095;-76
2022/01/31 02:03:57;;;;;;;21.35;9.18;;;3.50;99.90;;;;;;5135176;27;20050;-77
2022/01/31 02:06:23;;;;;;;20.88;10.82;;;3.40;99.90;;;;;;5136381;27;20058;-76
2022/01/31 02:08:50;;;;;;;22.10;10.30;;;3.40;99.90;;;;;;5133613;27;20058;-77
2022/01/31 02:11:20;;;;;;;18.73;9.73;;;3.30;99.90;;;;;;5125823;27;20079;-75
2022/01/31 02:13:46;;;;;;;24.63;10.23;;;3.20;99.90;;;;;;5116219;27;20069;-79
2022/01/31 02:16:13;;;;;;;26.90;9.63;;;3.20;99.90;;;;;;5120523;27;20478;-78
2022/01/31 02:18:48;;;;;;;20.73;10.75;;;3.10;99.90;;;;;;5116268;27;20490;-77
2022/01/31 02:21:14;;;;;;;20.52;10.52;;;3.10;99.90;;;;;;5135038;27;20053;-77
2022/01/31 02:23:41;;;;;;;33.85;13.10;;;3.10;99.90;;;;;;5119391;27;20055;-77
2022/01/31 02:26:07;;;;;;;21.38;10.55;;;3.00;99.90;;;;;;5131577;27;20417;-76
2022/01/31 02:28:34;;;;;;;25.45;10.93;;;3.00;99.90;;;;;;5123288;27;20070;-77
2022/01/31 02:31:00;;;;;;;23.33;12.13;;;2.90;99.90;;;;;;5123670;27;20046;-76
2022/01/31 02:33:27;;;;;;;24.17;11.40;;;2.80;99.90;;;;;;5128449;27;20057;-77
2022/01/31 02:35:54;;;;;;;24.02;12.27;;;2.80;99.90;;;;;;5123950;27;20058;-77
2022/01/31 02:38:21;;;;;;;24.55;12.52;;;2.70;99.90;;;;;;5131920;27;20066;-76
2022/01/31 02:40:48;;;;;;;18.60;11.82;;;2.70;99.90;;;;;;5120879;27;20051;-75
2022/01/31 02:43:15;;;;;;;27.30;13.05;;;2.70;99.90;;;;;;5129000;27;20736;-75
2022/01/31 02:45:42;;;;;;;28.77;11.88;;;2.60;99.90;;;;;;5148383;27;20046;-76
2022/01/31 02:48:09;;;;;;;27.38;12.23;;;2.60;99.90;;;;;;5148517;27;20134;-75
2022/01/31 02:50:35;;;;;;;18.77;10.90;;;2.60;99.90;;;;;;5128873;27;20047;-76
2022/01/31 02:53:12;;;;;;;23.27;13.05;;;2.60;99.90;;;;;;5133383;27;20046;-77
2022/01/31 02:55:38;;;;;;;28.33;13.48;;;2.50;99.90;;;;;;5119106;27;20042;-77
2022/01/31 02:58:05;;;;;;;27.60;12.88;;;2.30;99.90;;;;;;5126308;27;20112;-77
2022/01/31 03:00:31;;;;;;;26.17;12.50;;;2.40;99.90;;;;;;5119108;27;20054;-77
2022/01/31 03:02:58;;;;;;;21.70;12.15;;;2.40;99.90;;;;;;5123126;27;20397;-77
2022/01/31 03:05:24;;;;;;;28.35;14.90;;;2.40;99.90;;;;;;5129685;27;20605;-76
2022/01/31 03:07:52;;;;;;;23.13;13.90;;;2.30;99.90;;;;;;5124115;27;20096;-78
2022/01/31 03:10:18;;;;;;;23.00;13.60;;;2.30;99.90;;;;;;5127266;27;20478;-75
2022/01/31 03:12:45;;;;;;;19.50;11.38;;;2.30;99.90;;;;;;5124720;27;20474;-76
2022/01/31 03:15:11;;;;;;;26.00;14.15;;;2.30;99.90;;;;;;5118663;27;20399;-76
2022/01/31 03:17:40;;;;;;;21.80;13.70;;;2.40;99.90;;;;;;5120112;27;20469;-77
2022/01/31 03:20:07;;;;;;;27.08;14.77;;;2.40;99.90;;;;;;5117458;27;20061;-75
2022/01/31 03:22:33;;;;;;;28.75;14.50;;;2.40;99.90;;;;;;5130018;27;20054;-76
2022/01/31 03:25:00;;;;;;;28.52;14.98;;;2.40;99.90;;;;;;5122464;27;20059;-77
2022/01/31 03:27:26;;;;;;;21.15;12.73;;;2.40;99.90;;;;;;5116931;27;20051;-76
2022/01/31 03:29:53;;;;;;;23.02;15.15;;;2.40;99.90;;;;;;5120760;27;20096;-75
2022/01/31 03:32:19;;;;;;;32.72;15.15;;;2.40;99.90;;;;;;5124230;27;20043;-77
2022/01/31 03:34:46;;;;;;;26.25;15.43;;;2.40;99.90;;;;;;5131937;27;20051;-76
2022/01/31 03:37:12;;;;;;;31.27;14.25;;;2.40;99.90;;;;;;5136002;27;20057;-77
2022/01/31 03:39:39;;;;;;;20.08;14.38;;;2.50;99.90;;;;;;5144244;27;20065;-77
2022/01/31 03:42:05;;;;;;;22.98;13.52;;;2.50;99.90;;;;;;5117814;27;20051;-76
2022/01/31 03:44:32;;;;;;;24.42;15.23;;;2.50;99.90;;;;;;5120303;27;20486;-77
2022/01/31 03:46:58;;;;;;;24.02;14.57;;;2.50;99.90;;;;;;5115993;27;20043;-77
2022/01/31 03:49:25;;;;;;;17.38;12.25;;;2.50;99.90;;;;;;5125239;27;20043;-77
2022/01/31 03:51:52;;;;;;;29.70;13.18;;;2.50;99.90;;;;;;5121943;27;20043;-76
2022/01/31 03:54:18;;;;;;;19.73;12.65;;;2.50;99.90;;;;;;5122510;27;20038;-77
2022/01/31 03:56:45;;;;;;;23.95;13.23;;;2.60;99.90;;;;;;5117826;27;20050;-77
2022/01/31 03:59:11;;;;;;;20.80;13.25;;;2.60;99.90;;;;;;5122268;27;20058;-76
2022/01/31 04:01:38;;;;;;;15.00;10.70;;;2.60;99.90;;;;;;5116161;27;20043;-77
2022/01/31 04:04:10;;;;;;;18.15;9.90;;;2.70;99.90;;;;;;5133887;27;20062;-76
2022/01/31 04:06:36;;;;;;;19.20;10.60;;;2.70;99.90;;;;;;5129643;28;20070;-75
2022/01/31 04:09:03;;;;;;;11.85;8.30;;;2.70;99.90;;;;;;5121625;28;20485;-77
2022/01/31 04:11:29;;;;;;;11.45;8.65;;;2.80;99.90;;;;;;5116879;27;20394;-77
2022/01/31 04:13:56;;;;;;;15.57;10.25;;;2.80;99.90;;;;;;5152623;27;20051;-76
2022/01/31 04:16:22;;;;;;;11.73;9.00;;;2.90;99.90;;;;;;5120653;28;20051;-76
2022/01/31 04:18:49;;;;;;;12.80;8.93;;;2.90;99.90;;;;;;5118884;28;20043;-76
2022/01/31 04:21:16;;;;;;;13.75;8.85;;;2.90;99.90;;;;;;5115890;27;20418;-76
2022/01/31 04:23:42;;;;;;;14.07;9.40;;;2.90;99.90;;;;;;5120429;27;20051;-76
2022/01/31 04:26:12;;;;;;;12.52;8.75;;;2.90;99.90;;;;;;5118275;28;20048;-76
2022/01/31 04:28:44;;;;;;;11.45;9.25;;;2.90;99.90;;;;;;5147654;27;20139;-76
2022/01/31 04:31:23;;;;;;;15.23;10.02;;;2.90;99.90;;;;;;5130283;27;20043;-75
2022/01/31 04:33:50;;;;;;;12.85;9.20;;;2.90;99.90;;;;;;5123868;27;20091;-76
2022/01/31 04:36:16;;;;;;;17.60;9.50;;;3.00;99.90;;;;;;5125052;28;20047;-76
2022/01/31 04:38:43;;;;;;;14.40;9.63;;;3.10;99.90;;;;;;5127542;27;20054;-76
2022/01/31 04:41:09;;;;;;;22.20;10.13;;;3.20;99.90;;;;;;5136355;27;20047;-76
2022/01/31 04:43:36;;;;;;;17.42;7.93;;;3.20;99.90;;;;;;5124260;27;20049;-76
2022/01/31 04:46:04;;;;;;;16.00;4.97;;;3.40;99.90;;;;;;5122008;27;20051;-79
2022/01/31 04:48:31;;;;;;;10.68;3.90;;;3.80;99.90;;;;;;5127967;27;20076;-77
2022/01/31 04:50:57;;;;;;;15.82;4.53;;;4.00;99.90;;;;;;5125336;27;20054;-76
2022/01/31 04:53:24;;;;;;;12.75;3.60;;;4.20;99.90;;;;;;5124195;27;20043;-76
2022/01/31 04:55:50;;;;;;;8.88;1.90;;;4.30;99.90;;;;;;5130410;27;20049;-76
2022/01/31 04:58:17;;;;;;;5.45;2.22;;;4.30;99.90;;;;;;5116890;27;20475;-77
2022/01/31 05:00:44;;;;;;;4.22;2.00;;;4.40;99.90;;;;;;5124823;27;20092;-76
2022/01/31 05:03:13;;;;;;;9.02;3.10;;;4.50;99.90;;;;;;5136937;27;20054;-77
2022/01/31 05:05:39;;;;;;;13.48;2.35;;;4.60;99.90;;;;;;5124977;27;20082;-77
2022/01/31 05:08:06;;;;;;;7.22;1.88;;;4.50;99.90;;;;;;5130029;27;20130;-78
2022/01/31 05:10:34;;;;;;;15.07;2.47;;;4.40;99.90;;;;;;5122881;27;20141;-76
2022/01/31 05:13:00;;;;;;;14.07;3.08;;;4.30;99.90;;;;;;5129403;27;20043;-76
2022/01/31 05:15:27;;;;;;;11.88;2.75;;;4.30;99.90;;;;;;5124875;27;20050;-78
2022/01/31 05:17:54;;;;;;;16.45;2.10;;;4.20;99.90;;;;;;5128955;27;20474;-76
2022/01/31 05:20:20;;;;;;;6.93;2.17;;;4.20;99.90;;;;;;5134779;27;20438;-76
2022/01/31 05:22:47;;;;;;;17.98;3.15;;;4.10;99.90;;;;;;5122899;27;20054;-76
2022/01/31 05:25:13;;;;;;;11.23;3.05;;;4.10;99.90;;;;;;5120894;27;20047;-75
2022/01/31 05:27:40;;;;;;;14.77;2.22;;;4.20;99.90;;;;;;5120633;27;20378;-77
2022/01/31 05:30:06;;;;;;;10.52;2.70;;;4.20;99.90;;;;;;5131736;27;20045;-78
2022/01/31 05:32:33;;;;;;;19.65;3.85;;;4.30;99.90;;;;;;5131159;27;20134;-76
2022/01/31 05:35:01;;;;;;;20.63;4.57;;;4.30;99.90;;;;;;5127005;27;20047;-76
2022/01/31 05:37:27;;;;;;;9.50;3.45;;;4.40;99.90;;;;;;5139441;27;20323;-76
2022/01/31 05:39:54;;;;;;;26.75;3.42;;;4.40;99.90;;;;;;5124461;27;20386;-76
2022/01/31 05:42:20;;;;;;;20.52;4.22;;;4.40;99.90;;;;;;5125011;27;20398;-75
2022/01/31 05:44:47;;;;;;;16.52;3.70;;;4.40;99.90;;;;;;5123121;27;20058;-76
2022/01/31 05:47:13;;;;;;;10.93;4.03;;;4.50;99.90;;;;;;5125932;27;20118;-75
2022/01/31 05:49:40;;;;;;;19.38;4.55;;;4.50;99.90;;;;;;5126937;27;20401;-77
2022/01/31 05:52:07;;;;;;;22.20;3.92;;;4.60;99.90;;;;;;5132520;27;20394;-76
2022/01/31 05:54:33;;;;;;;8.57;3.42;;;4.60;99.90;;;;;;5116955;27;20057;-76
2022/01/31 05:57:00;;;;;;;5.57;2.20;;;4.60;99.90;;;;;;5124264;27;20079;-76
2022/01/31 05:59:26;;;;;;;11.63;2.92;;;4.60;99.90;;;;;;5128364;27;20051;-76
2022/01/31 06:01:53;;;;;;;9.18;3.05;;;4.60;99.90;;;;;;5126135;27;20056;-76
2022/01/31 06:04:19;;;;;;;7.68;1.90;;;4.60;99.90;;;;;;5134120;27;20050;-76
2022/01/31 06:06:46;;;;;;;22.83;3.47;;;4.60;99.90;;;;;;5125683;27;20047;-76
2022/01/31 06:09:12;;;;;;;12.88;2.47;;;4.50;99.90;;;;;;5123860;27;20455;-78
2022/01/31 06:11:39;;;;;;;9.00;2.33;;;4.40;99.90;;;;;;5129156;27;20038;-75
2022/01/31 06:14:07;;;;;;;10.02;2.30;;;4.40;99.90;;;;;;5121476;27;20383;-76
2022/01/31 06:16:34;;;;;;;9.00;2.50;;;4.50;99.90;;;;;;5130889;27;20452;-75
2022/01/31 06:19:00;;;;;;;7.38;2.15;;;4.40;99.90;;;;;;5128280;27;20058;-75
2022/01/31 06:21:27;;;;;;;7.57;2.85;;;4.40;99.90;;;;;;5119862;27;20058;-74
2022/01/31 06:23:53;;;;;;;15.02;3.20;;;4.40;99.90;;;;;;5121282;27;20043;-77
2022/01/31 06:26:21;;;;;;;8.93;2.30;;;4.50;99.90;;;;;;5134398;27;20055;-76
2022/01/31 06:28:48;;;;;;;20.70;2.47;;;4.50;99.90;;;;;;5120889;27;20047;-76
2022/01/31 06:31:14;;;;;;;14.55;2.53;;;4.40;99.90;;;;;;5133256;27;20462;-77
2022/01/31 06:33:41;;;;;;;15.35;2.25;;;4.40;99.90;;;;;;5128967;27;20039;-76
2022/01/31 06:36:07;;;;;;;20.02;2.83;;;4.50;99.90;;;;;;5127388;27;20092;-76
2022/01/31 06:38:35;;;;;;;16.20;2.47;;;4.40;99.90;;;;;;5126541;27;20038;-77
2022/01/31 06:41:02;;;;;;;11.13;2.72;;;4.40;99.90;;;;;;5133572;27;20043;-76
2022/01/31 06:43:28;;;;;;;10.50;2.25;;;4.40;99.90;;;;;;5127210;27;20046;-76
2022/01/31 06:45:55;;;;;;;9.10;3.28;;;4.40;99.90;;;;;;5129022;27;20043;-76
2022/01/31 06:48:21;;;;;;;10.98;2.80;;;4.40;99.90;;;;;;5127124;27;20431;-77
2022/01/31 06:50:48;;;;;;;7.70;1.58;;;4.40;99.90;;;;;;5133392;27;20134;-76
2022/01/31 06:53:17;;;;;;;11.80;3.15;;;4.40;99.90;;;;;;5130819;27;20133;-76
2022/01/31 06:55:43;;;;;;;9.13;2.53;;;4.30;99.90;;;;;;5129128;27;20447;-76
2022/01/31 06:58:10;;;;;;;6.07;1.73;;;4.30;99.90;;;;;;5146451;27;20133;-76
2022/01/31 07:00:36;;;;;;;8.32;2.78;;;4.30;99.90;;;;;;5131110;27;20042;-76
2022/01/31 07:03:06;;;;;;;20.13;2.38;;;4.30;99.90;;;;;;5129978;27;20047;-77
2022/01/31 07:05:32;;;;;;;8.52;1.95;;;4.30;99.90;;;;;;5131622;27;20045;-75
2022/01/31 07:07:59;;;;;;;7.80;2.53;;;4.20;99.90;;;;;;5132253;27;20508;-76
2022/01/31 07:10:25;;;;;;;15.13;1.92;;;4.20;99.90;;;;;;5147371;27;20054;-77
2022/01/31 07:12:54;;;;;;;11.27;2.15;;;4.20;99.90;;;;;;5120856;27;20039;-77
2022/01/31 07:15:20;;;;;;;13.50;3.60;;;4.20;99.90;;;;;;5123667;27;20061;-77
2022/01/31 07:17:47;;;;;;;7.43;2.08;;;4.20;99.90;;;;;;5120223;27;20051;-77
2022/01/31 07:20:21;;;;;;;13.60;2.00;;;4.20;99.90;;;;;;5148572;27;20058;-77
2022/01/31 07:22:52;;;;;;;7.55;2.00;;;4.20;99.90;;;;;;5129139;27;20075;-77
2022/01/31 07:25:32;;;;;;;8.35;2.08;;;4.20;99.90;;;;;;5127957;27;20051;-78
2022/01/31 07:27:59;;;;;;;14.43;2.33;;;4.20;99.90;;;;;;5140474;27;20057;-77
2022/01/31 07:30:25;;;;;;;11.32;2.63;;;4.30;99.90;;;;;;5127675;27;20046;-77
2022/01/31 07:32:52;;;;;;;18.08;2.60;;;4.20;99.90;;;;;;5128093;27;20047;-76
2022/01/31 07:35:18;;;;;;;10.55;2.45;;;4.20;99.90;;;;;;5128068;27;20378;-75
2022/01/31 07:37:45;;;;;;;14.95;3.08;;;4.30;99.90;;;;;;5147036;27;20070;-77
2022/01/31 07:40:11;;;;;;;17.88;3.38;;;4.30;99.90;;;;;;5129997;27;20054;-77
2022/01/31 07:42:38;;;;;;;21.05;3.30;;;4.30;99.90;;;;;;5126298;27;20469;-77
2022/01/31 07:45:04;;;;;;;19.35;2.85;;;4.30;99.90;;;;;;5130232;27;20058;-76
2022/01/31 07:47:31;;;;;;;10.25;2.03;;;4.20;99.90;;;;;;5126208;27;20046;-78
2022/01/31 07:49:58;;;;;;;7.13;2.05;;;4.30;99.90;;;;;;5127535;27;20058;-77
2022/01/31 07:52:24;;;;;;;15.23;2.42;;;4.30;99.90;;;;;;5127828;27;20122;-79
2022/01/31 07:54:51;;;;;;;16.67;2.15;;;4.30;99.90;;;;;;5148582;27;20062;-76
2022/01/31 07:57:19;;;;;;;9.07;2.80;;;4.30;99.90;;;;;;5127872;27;20039;-76
2022/01/31 07:59:45;;;;;;;8.32;2.85;;;4.30;99.90;;;;;;5129751;27;20055;-75
2022/01/31 08:02:12;;;;;;;12.43;2.95;;;4.30;99.90;;;;;;5128889;27;20066;-75
2022/01/31 08:04:38;;;;;;;14.30;3.20;;;4.30;99.90;;;;;;5131823;27;20368;-76
2022/01/31 08:07:05;;;;;;;15.55;2.17;;;4.30;99.90;;;;;;5131691;27;20396;-76
2022/01/31 08:09:32;;;;;;;12.75;2.70;;;4.30;99.90;;;;;;5126916;27;20070;-75
2022/01/31 08:11:59;;;;;;;6.63;1.95;;;4.40;99.90;;;;;;5132306;27;20039;-75
2022/01/31 08:14:26;;;;;;;15.25;3.22;;;4.40;99.90;;;;;;5143263;27;20052;-78
2022/01/31 08:16:52;;;;;;;11.55;2.70;;;4.40;99.90;;;;;;5146040;27;20125;-76
2022/01/31 08:19:19;;;;;;;9.70;2.33;;;4.40;99.90;;;;;;5133710;27;20038;-77
2022/01/31 08:21:45;;;;;;;11.55;2.25;;;4.50;99.90;;;;;;5131764;27;20042;-77
2022/01/31 08:24:12;;;;;;;17.08;2.60;;;4.50;99.90;;;;;;5150532;27;20038;-77
2022/01/31 08:26:39;;;;;;;10.00;2.05;;;4.60;99.90;;;;;;5132573;27;20058;-76
2022/01/31 08:29:18;;;;;;;8.57;2.67;;;4.60;99.90;;;;;;5146812;27;20086;-76
2022/01/31 08:31:46;;;;;;;9.35;3.50;;;4.70;99.90;;;;;;5129984;27;20130;-76
2022/01/31 08:34:24;;;;;;;13.70;2.90;;;4.70;99.90;;;;;;5128017;27;20051;-75
2022/01/31 08:36:51;;;;;;;13.35;2.40;;;4.70;99.90;;;;;;5127894;27;20054;-76
2022/01/31 08:39:18;;;;;;;13.52;2.97;;;4.70;99.90;;;;;;5130872;27;20103;-77
2022/01/31 08:41:44;;;;;;;9.18;2.42;;;4.80;99.90;;;;;;5126619;27;20042;-76
2022/01/31 08:44:11;;;;;;;6.53;1.83;;;4.80;99.90;;;;;;5129300;27;20047;-76
2022/01/31 08:46:39;;;;;;;9.68;2.22;;;4.80;99.90;;;;;;5147456;27;20057;-77
2022/01/31 08:49:05;;;;;;;15.85;3.47;;;4.90;99.90;;;;;;5149666;27;20471;-75
2022/01/31 08:51:32;;;;;;;11.68;2.50;;;4.80;99.90;;;;;;5125962;27;20375;-77
2022/01/31 08:53:58;;;;;;;11.10;2.13;;;5.00;99.90;;;;;;5129911;27;20075;-76
2022/01/31 08:56:25;;;;;;;17.30;2.70;;;5.00;99.90;;;;;;5127295;27;20038;-75
2022/01/31 08:58:52;;;;;;;12.00;2.67;;;4.90;99.90;;;;;;5128575;27;20092;-76
2022/01/31 09:01:19;;;;;;;10.52;2.97;;;4.90;99.90;;;;;;5133873;27;20047;-76
2022/01/31 09:04:01;;;;;;;19.20;2.47;;;5.00;99.90;;;;;;5125776;27;20107;-77
2022/01/31 09:06:27;;;;;;;11.35;2.40;;;5.00;99.90;;;;;;5133739;27;20046;-77
2022/01/31 09:08:54;;;;;;;21.67;3.63;;;5.20;99.90;;;;;;5144295;27;20058;-77
2022/01/31 09:11:20;;;;;;;9.20;1.88;;;5.40;99.90;;;;;;5131866;27;20038;-77
2022/01/31 09:13:47;;;;;;;10.35;2.65;;;5.50;99.90;;;;;;5128016;27;20055;-77
2022/01/31 09:16:13;;;;;;;10.38;2.67;;;5.50;99.90;;;;;;5132721;27;20039;-76
2022/01/31 09:18:40;;;;;;;20.33;3.17;;;5.60;99.90;;;;;;5151102;27;20057;-77
2022/01/31 09:21:06;;;;;;;6.93;3.05;;;5.60;99.90;;;;;;5129045;27;20669;-78
2022/01/31 09:23:33;;;;;;;10.35;2.13;;;5.60;99.90;;;;;;5132089;27;20466;-80
2022/01/31 09:26:00;;;;;;;17.15;3.78;;;5.60;99.90;;;;;;5132591;27;20473;-76
2022/01/31 09:28:26;;;;;;;8.15;2.30;;;5.50;99.90;;;;;;5130924;27;20042;-78
2022/01/31 09:30:53;;;;;;;15.38;3.28;;;5.40;99.90;;;;;;5132147;27;20053;-77
2022/01/31 09:33:20;;;;;;;9.82;2.17;;;5.50;99.90;;;;;;5129331;27;20046;-78
2022/01/31 09:35:46;;;;;;;6.30;2.08;;;5.60;99.90;;;;;;5127183;27;20046;-75
2022/01/31 09:38:16;;;;;;;13.93;3.13;;;5.60;99.90;;;;;;5130610;27;20073;-77
2022/01/31 09:40:42;;;;;;;9.13;2.83;;;5.60;99.90;;;;;;5149663;27;20905;-77
2022/01/31 09:43:27;;;;;;;15.05;2.67;;;5.60;99.90;;;;;;5150711;27;20143;-77
2022/01/31 09:46:01;;;;;;;12.80;2.45;;;5.50;99.90;;;;;;5126368;27;20089;-77
2022/01/31 09:48:35;;;;;;;8.05;2.45;;;5.60;99.90;;;;;;5128535;27;20088;-77
2022/01/31 09:51:02;;;;;;;10.98;2.60;;;5.70;99.90;;;;;;5131818;27;20378;-77
2022/01/31 09:53:28;;;;;;;10.95;2.78;;;5.80;99.90;;;;;;5127979;27;20502;-77
2022/01/31 09:55:55;;;;;;;18.35;4.18;;;5.90;99.90;;;;;;5125988;27;20055;-76
2022/01/31 09:58:24;;;;;;;16.25;3.70;;;6.00;99.90;;;;;;5146840;27;20056;-78
2022/01/31 10:00:51;;;;;;;18.83;3.88;;;6.10;99.90;;;;;;5128376;27;20054;-77
2022/01/31 10:03:17;;;;;;;13.82;3.33;;;6.00;99.90;;;;;;5129341;27;20043;-77
2022/01/31 10:05:44;;;;;;;9.95;3.28;;;6.10;99.90;;;;;;5130506;27;20054;-77
2022/01/31 10:08:10;;;;;;;8.70;3.50;;;6.10;99.90;;;;;;5127117;27;20050;-77
2022/01/31 10:10:39;;;;;;;9.30;2.67;;;6.10;99.90;;;;;;5133110;27;20047;-79
2022/01/31 10:18:39;;;;;;;12.93;2.80;;;6.40;99.90;;;;;;5107071;27;20070;-78
2022/01/31 10:21:05;;;;;;;12.82;2.97;;;6.50;99.90;;;;;;5134002;27;20038;-77
2022/01/31 10:23:32;;;;;;;17.90;2.90;;;6.50;99.90;;;;;;5132571;27;20046;-79
2022/01/31 10:25:58;;;;;;;6.30;2.60;;;6.70;99.90;;;;;;5126548;27;20183;-78
2022/01/31 10:28:27;;;;;;;10.85;1.77;;;6.60;99.90;;;;;;5145199;27;20051;-77
2022/01/31 10:30:53;;;;;;;9.18;1.67;;;6.70;99.90;;;;;;5124007;27;20096;-78
2022/01/31 10:33:24;;;;;;;7.00;2.05;;;6.70;99.90;;;;;;5134573;27;20038;-77
2022/01/31 10:35:51;;;;;;;11.55;2.65;;;6.80;99.90;;;;;;5131476;27;20043;-77
2022/01/31 10:38:29;;;;;;;8.65;1.55;;;6.90;99.90;;;;;;5125669;27;20175;-78
2022/01/31 10:50:38;;;;;;;13.20;2.97;;;7.00;99.90;;;;;;5124059;27;20478;-76
2022/01/31 10:52:05;;;;;;;10.98;1.98;;;7.10;99.90;;;;;;5134495;27;20043;-77
2022/01/31 10:54:41;;;;;;;11.40;2.10;;;7.30;99.90;;;;;;5125811;27;20042;-78
2022/01/31 10:57:08;;;;;;;8.70;2.05;;;7.20;99.90;;;;;;5130085;27;20047;-76
2022/01/31 10:59:34;;;;;;;18.92;2.97;;;7.40;99.90;;;;;;5131099;27;20047;-78
2022/01/31 11:02:01;;;;;;;9.45;2.85;;;7.40;99.90;;;;;;5116470;27;20047;-77
2022/01/31 11:04:27;;;;;;;12.75;2.38;;;7.50;99.90;;;;;;5118665;27;20058;-77
2022/01/31 11:06:54;;;;;;;15.10;2.22;;;7.40;99.90;;;;;;5132514;27;20062;-78
2022/01/31 11:09:20;;;;;;;9.43;1.80;;;7.30;99.90;;;;;;5146291;27;20165;-76
2022/01/31 11:11:47;;;;;;;10.38;2.70;;;7.40;99.90;;;;;;5130896;27;20061;-78
2022/01/31 11:14:13;;;;;;;11.60;1.80;;;7.40;99.90;;;;;;5123602;27;20058;-77
2022/01/31 11:16:40;;;;;;;13.75;2.80;;;7.50;99.90;;;;;;5130831;27;20054;-78
2022/01/31 11:19:08;;;;;;;9.45;2.40;;;7.40;99.90;;;;;;5118677;27;20051;-78
2022/01/31 11:21:35;;;;;;;18.02;3.45;;;7.60;99.90;;;;;;5127455;27;20533;-77
2022/01/31 11:24:02;;;;;;;12.50;2.40;;;7.50;99.90;;;;;;5150923;27;20504;-78
2022/01/31 11:26:29;;;;;;;13.30;2.95;;;7.50;99.90;;;;;;5124207;27;20046;-76
2022/01/31 11:28:55;;;;;;;10.63;2.83;;;7.60;99.90;;;;;;5118564;27;20046;-76
2022/01/31 11:31:25;;;;;;;12.43;2.72;;;7.50;99.90;;;;;;5131137;27;20050;-78
2022/01/31 11:33:53;;;;;;;12.93;2.83;;;7.40;99.90;;;;;;5132074;27;20074;-78
2022/01/31 11:36:19;;;;;;;17.58;3.92;;;7.50;99.90;;;;;;5114944;27;20125;-76
2022/01/31 11:38:46;;;;;;;10.98;2.35;;;7.50;99.90;;;;;;5126784;27;20491;-80
2022/01/31 11:41:12;;;;;;;11.52;3.50;;;7.30;99.90;;;;;;5119344;27;20074;-77
2022/01/31 11:43:39;;;;;;;23.73;3.10;;;7.50;99.90;;;;;;5140174;27;20473;-78
2022/01/31 11:46:05;;;;;;;8.23;2.53;;;7.60;99.90;;;;;;5126955;27;20508;-78
2022/01/31 11:48:32;;;;;;;11.52;2.92;;;7.80;99.90;;;;;;5128197;27;20045;-76
2022/01/31 11:50:59;;;;;;;18.23;3.42;;;7.90;99.90;;;;;;5126670;27;20039;-77
2022/01/31 11:53:25;;;;;;;21.63;3.50;;;7.90;99.90;;;;;;5122064;27;20095;-78
2022/01/31 11:55:52;;;;;;;16.63;4.00;;;7.60;99.90;;;;;;5126213;27;20051;-78
2022/01/31 11:58:18;;;;;;;14.77;3.03;;;7.60;99.90;;;;;;5147752;27;20043;-77
2022/01/31 12:00:46;;;;;;;14.50;3.70;;;7.80;99.90;;;;;;5128131;27;20051;-79
2022/01/31 12:03:13;;;;;;;17.58;2.90;;;7.50;99.90;;;;;;5128970;27;20042;-77
2022/01/31 12:05:40;;;;;;;24.85;2.97;;;7.60;99.90;;;;;;5148566;27;20043;-77
2022/01/31 12:08:07;;;;;;;10.05;3.05;;;7.70;99.90;;;;;;5123941;27;20185;-78
2022/01/31 12:10:35;;;;;;;14.18;3.85;;;7.50;99.90;;;;;;5123614;28;20055;-78
2022/01/31 12:13:12;;;;;;;23.27;3.47;;;7.50;99.90;;;;;;5120247;28;20048;-78
2022/01/31 12:18:31;;;;;;;12.73;2.78;;;7.60;99.90;;;;;;5107815;28;20047;-77
2022/01/31 12:23:43;;;;;;;21.02;3.35;;;7.70;99.90;;;;;;5115921;28;20047;-77
2022/01/31 12:26:09;;;;;;;17.67;4.55;;;7.70;99.90;;;;;;5113881;28;20047;-77
2022/01/31 12:28:36;;;;;;;18.98;4.18;;;7.90;99.90;;;;;;5119886;28;20051;-77
2022/01/31 12:31:02;;;;;;;11.88;2.95;;;7.90;99.90;;;;;;5113833;28;20051;-77
2022/01/31 12:33:29;;;;;;;10.77;3.60;;;7.80;99.90;;;;;;5109249;28;20048;-77
2022/01/31 12:35:55;;;;;;;15.40;3.35;;;7.50;99.90;;;;;;5113703;28;20062;-78
2022/01/31 12:38:22;;;;;;;26.42;3.75;;;7.60;99.90;;;;;;5110287;28;20065;-78
2022/01/31 12:40:52;;;;;;;11.07;3.28;;;7.60;99.90;;;;;;5114027;28;20047;-77
2022/01/31 12:43:35;;;;;;;13.90;3.17;;;7.70;99.90;;;;;;5115683;28;21219;-77
2022/01/31 12:46:01;;;;;;;13.05;3.40;;;7.70;99.90;;;;;;5113056;28;20721;-77
2022/01/31 12:48:28;;;;;;;21.35;3.22;;;7.70;99.90;;;;;;5110528;28;20474;-78
2022/01/31 12:50:56;;;;;;;24.98;4.10;;;7.50;99.90;;;;;;5120381;28;20050;-79
2022/01/31 12:53:23;;;;;;;11.43;2.78;;;7.60;99.90;;;;;;5122610;28;20054;-77
2022/01/31 12:55:49;;;;;;;27.08;5.03;;;7.80;99.90;;;;;;5112198;28;20047;-77
2022/01/31 12:58:16;;;;;;;20.33;3.83;;;8.00;99.90;;;;;;5110078;28;20055;-77
2022/01/31 13:00:43;;;;;;;19.48;4.78;;;7.80;99.90;;;;;;5117382;28;20048;-77
2022/01/31 13:03:10;;;;;;;24.38;4.10;;;7.50;99.90;;;;;;5113638;27;20055;-77
2022/01/31 13:05:37;;;;;;;18.50;4.05;;;7.50;99.90;;;;;;5126213;27;20059;-78
2022/01/31 13:08:03;;;;;;;7.90;3.63;;;7.80;99.90;;;;;;5143979;27;20051;-77